createdAt,value
2022-08-19T00:02:05.789Z,14.60
2022-08-19T00:04:37.683Z,14.18
2022-08-19T00:07:06.373Z,14.90
2022-08-19T00:09:34.963Z,14.90
2022-08-19T00:12:03.733Z,15.15
2022-08-19T00:14:33.231Z,16.88
2022-08-19T00:17:04.010Z,16.17
2022-08-19T00:19:32.774Z,15.27
2022-08-19T00:22:01.598Z,17.58
2022-08-19T00:24:30.065Z,16.60
2022-08-19T00:27:04.938Z,16.48
2022-08-19T00:29:52.359Z,15.68
2022-08-19T00:32:23.037Z,16.80
2022-08-19T00:34:54.345Z,17.30
2022-08-19T00:37:24.129Z,16.35
2022-08-19T00:39:53.198Z,15.75
2022-08-19T00:42:22.241Z,15.60
2022-08-19T00:44:51.539Z,17.10
2022-08-19T00:47:20.797Z,16.48
2022-08-19T00:49:52.609Z,15.90
2022-08-19T00:52:23.179Z,17.10
2022-08-19T00:54:52.898Z,16.17
2022-08-19T00:57:24.172Z,17.70
2022-08-19T01:00:02.484Z,15.88
2022-08-19T01:02:32.769Z,18.65
2022-08-19T01:05:03.117Z,18.25
2022-08-19T01:07:35.895Z,15.25
2022-08-19T01:10:07.720Z,14.13
2022-08-19T01:12:36.579Z,16.55
2022-08-19T01:15:05.244Z,15.68
2022-08-19T01:17:34.045Z,17.08
2022-08-19T01:20:04.981Z,14.77
2022-08-19T01:22:37.806Z,15.35
2022-08-19T01:25:09.501Z,14.82
2022-08-19T01:27:44.286Z,14.05
2022-08-19T01:30:15.235Z,14.63
2022-08-19T01:32:44.339Z,15.30
2022-08-19T01:35:13.239Z,16.77
2022-08-19T01:37:47.085Z,15.98
2022-08-19T01:40:15.673Z,17.58
2022-08-19T01:42:44.172Z,14.70
2022-08-19T01:45:13.140Z,17.45
2022-08-19T01:47:42.201Z,15.43
2022-08-19T01:50:12.476Z,16.45
2022-08-19T01:52:42.153Z,15.65
2022-08-19T01:55:13.257Z,15.50
2022-08-19T01:57:42.298Z,18.25
2022-08-19T02:00:13.077Z,14.63
2022-08-19T02:02:44.201Z,17.05
2022-08-19T02:05:13.091Z,15.90
2022-08-19T02:07:41.860Z,17.80
2022-08-19T02:10:13.939Z,18.05
2022-08-19T02:12:45.296Z,16.52
2022-08-19T02:15:14.634Z,16.70
2022-08-19T02:17:43.270Z,17.98
2022-08-19T02:20:14.064Z,19.08
2022-08-19T02:22:43.459Z,17.92
2022-08-19T02:25:13.817Z,19.42
2022-08-19T02:27:42.624Z,20.45
2022-08-19T02:30:14.123Z,19.58
2022-08-19T02:32:44.745Z,21.73
2022-08-19T02:35:13.981Z,17.67
2022-08-19T02:37:59.931Z,21.92
2022-08-19T02:40:30.003Z,19.90
2022-08-19T02:42:59.042Z,18.13
2022-08-19T02:45:27.519Z,21.73
2022-08-19T02:47:57.928Z,20.95
2022-08-19T02:50:26.684Z,19.92
2022-08-19T02:52:55.148Z,19.17
2022-08-19T02:55:23.597Z,17.52
2022-08-19T02:57:53.448Z,20.80
2022-08-19T03:00:22.024Z,17.95
2022-08-19T03:02:50.498Z,17.40
2022-08-19T03:05:19.296Z,16.52
2022-08-19T03:08:08.901Z,17.88
2022-08-19T03:10:43.235Z,20.02
2022-08-19T03:13:13.093Z,18.35
2022-08-19T03:15:42.639Z,19.73
2022-08-19T03:18:11.168Z,21.42
2022-08-19T03:20:45.081Z,18.02
2022-08-19T03:23:14.878Z,20.63
2022-08-19T03:25:44.148Z,16.60
2022-08-19T03:28:14.865Z,19.73
2022-08-19T03:30:44.684Z,19.05
2022-08-19T03:33:18.182Z,19.77
2022-08-19T03:36:02.636Z,19.25
2022-08-19T03:38:31.256Z,18.60
2022-08-19T03:40:59.781Z,17.77
2022-08-19T03:43:29.690Z,22.30
2022-08-19T03:46:03.520Z,18.98
2022-08-19T03:48:32.136Z,18.92
2022-08-19T03:51:01.114Z,21.67
2022-08-19T03:53:29.746Z,19.02
2022-08-19T03:56:00.571Z,19.98
2022-08-19T03:58:31.106Z,23.58
2022-08-19T04:00:59.925Z,23.48
2022-08-19T04:03:28.826Z,22.85
2022-08-19T04:05:57.309Z,19.80
2022-08-19T04:08:26.152Z,24.08
2022-08-19T04:10:55.115Z,19.05
2022-08-19T04:13:23.582Z,18.10
2022-08-19T04:15:53.622Z,20.38
2022-08-19T04:18:22.064Z,19.50
2022-08-19T04:20:50.785Z,19.90
2022-08-19T04:23:19.656Z,20.52
2022-08-19T04:25:48.178Z,19.08
2022-08-19T04:28:16.836Z,21.30
2022-08-19T04:30:46.294Z,20.55
2022-08-19T04:33:16.612Z,22.92
2022-08-19T04:35:47.822Z,21.33
2022-08-19T04:38:16.908Z,22.33
2022-08-19T04:41:02.572Z,23.90
2022-08-19T04:43:31.670Z,22.13
2022-08-19T04:46:01.121Z,23.42
2022-08-19T04:48:31.201Z,19.70
2022-08-19T04:51:06.949Z,18.35
2022-08-19T04:53:38.027Z,19.08
2022-08-19T04:56:09.031Z,19.98
2022-08-19T04:58:37.815Z,23.42
2022-08-19T05:01:06.524Z,25.27
2022-08-19T05:03:36.435Z,20.85
2022-08-19T05:06:08.450Z,19.70
2022-08-19T05:08:37.731Z,20.92
2022-08-19T05:11:12.137Z,21.77
2022-08-19T05:13:43.359Z,19.08
2022-08-19T05:16:12.317Z,18.23
2022-08-19T05:19:00.029Z,17.60
2022-08-19T05:21:46.798Z,18.15
2022-08-19T05:24:16.059Z,19.67
2022-08-19T05:26:47.338Z,16.85
2022-08-19T05:29:16.845Z,16.77
2022-08-19T05:31:45.393Z,15.50
2022-08-19T05:34:20.474Z,16.10
2022-08-19T05:36:49.088Z,15.43
2022-08-19T05:39:18.445Z,16.02
2022-08-19T05:41:47.435Z,17.38
2022-08-19T05:44:16.653Z,15.35
2022-08-19T05:46:47.942Z,15.57
2022-08-19T05:49:18.713Z,18.85
2022-08-19T05:51:47.256Z,14.52
2022-08-19T05:54:15.961Z,13.95
2022-08-19T05:56:44.716Z,15.45
2022-08-19T05:59:13.454Z,16.30
2022-08-19T06:01:42.970Z,15.55
2022-08-19T06:04:11.661Z,14.75
2022-08-19T06:06:41.505Z,15.45
2022-08-19T06:09:10.880Z,16.42
2022-08-19T06:11:40.673Z,12.98
2022-08-19T06:14:10.118Z,13.52
2022-08-19T06:16:46.208Z,13.93
2022-08-19T06:19:16.977Z,14.77
2022-08-19T06:21:48.320Z,11.88
2022-08-19T06:24:18.044Z,14.82
2022-08-19T06:29:23.409Z,11.95
2022-08-19T06:31:54.562Z,13.70
2022-08-19T06:34:23.402Z,10.38
2022-08-19T06:36:54.652Z,12.85
2022-08-19T06:39:25.140Z,11.90
2022-08-19T06:41:56.781Z,9.65
2022-08-19T06:44:27.989Z,10.10
2022-08-19T06:46:57.571Z,14.15
2022-08-19T06:49:32.614Z,9.50
2022-08-19T06:52:03.181Z,8.98
2022-08-19T06:54:31.828Z,10.57
2022-08-19T06:57:07.667Z,8.93
2022-08-19T06:59:36.172Z,8.88
2022-08-19T07:02:07.612Z,10.35
2022-08-19T07:04:37.130Z,12.32
2022-08-19T07:07:21.053Z,15.07
2022-08-19T07:09:55.326Z,8.38
2022-08-19T07:12:29.638Z,8.13
2022-08-19T07:14:59.824Z,12.23
2022-08-19T07:17:28.668Z,12.93
2022-08-19T07:19:57.300Z,13.93
2022-08-19T07:22:27.152Z,14.85
2022-08-19T07:24:55.644Z,10.90
2022-08-19T07:27:25.377Z,10.02
2022-08-19T07:29:57.449Z,9.85
2022-08-19T07:32:27.370Z,12.63
2022-08-19T07:34:56.938Z,10.75
2022-08-19T07:37:32.396Z,8.82
2022-08-19T07:40:02.012Z,12.02
2022-08-19T07:42:31.203Z,10.63
2022-08-19T07:44:59.867Z,10.43
2022-08-19T07:47:49.365Z,11.45
2022-08-19T07:50:19.559Z,10.07
2022-08-19T07:52:50.741Z,11.25
2022-08-19T07:55:42.086Z,8.60
2022-08-19T07:58:09.688Z,9.75
2022-08-19T08:00:38.465Z,9.43
2022-08-19T08:03:07.045Z,11.20
2022-08-19T08:05:53.298Z,10.93
2022-08-19T08:08:44.229Z,9.15
2022-08-19T08:11:17.593Z,9.45
2022-08-19T08:14:01.287Z,11.27
2022-08-19T08:16:33.439Z,7.88
2022-08-19T08:19:03.270Z,10.95
2022-08-19T08:21:36.409Z,10.25
2022-08-19T08:24:06.444Z,7.03
2022-08-19T08:26:35.053Z,9.57
2022-08-19T08:29:12.393Z,7.18
2022-08-19T08:31:42.533Z,8.77
2022-08-19T08:34:11.265Z,11.85
2022-08-19T08:36:42.592Z,9.05
2022-08-19T08:39:12.825Z,9.63
2022-08-19T08:41:44.984Z,11.43
2022-08-19T08:44:17.312Z,8.48
2022-08-19T08:46:50.115Z,9.60
2022-08-19T08:49:26.617Z,6.95
2022-08-19T08:52:00.150Z,9.45
2022-08-19T08:54:34.749Z,8.63
2022-08-19T08:57:05.745Z,6.93
2022-08-19T08:59:36.607Z,7.75
2022-08-19T09:02:05.553Z,6.20
2022-08-19T09:04:34.039Z,11.07
2022-08-19T09:07:18.506Z,8.80
2022-08-19T09:10:05.497Z,8.13
2022-08-19T09:12:39.328Z,7.55
2022-08-19T09:15:14.419Z,6.88
2022-08-19T09:17:43.278Z,8.50
2022-08-19T09:20:17.275Z,9.13
2022-08-19T09:22:46.488Z,6.97
2022-08-19T09:25:26.751Z,6.07
2022-08-19T09:28:02.613Z,7.05
2022-08-19T09:30:32.657Z,7.25
2022-08-19T09:33:01.922Z,8.82
2022-08-19T09:35:31.692Z,9.00
2022-08-19T09:38:01.369Z,11.18
2022-08-19T09:40:38.258Z,8.27
2022-08-19T09:43:12.963Z,7.88
2022-08-19T09:45:42.023Z,11.07
2022-08-19T09:48:11.744Z,9.07
2022-08-19T09:50:51.577Z,6.95
2022-08-19T09:53:25.633Z,8.35
2022-08-19T09:55:57.528Z,9.10
2022-08-19T09:58:28.654Z,6.95
2022-08-19T10:00:57.403Z,7.18
2022-08-19T10:03:29.845Z,9.75
2022-08-19T10:05:59.820Z,7.03
2022-08-19T10:08:29.272Z,8.57
2022-08-19T10:10:59.816Z,7.32
2022-08-19T10:13:49.371Z,10.07
2022-08-19T10:16:18.976Z,10.18
2022-08-19T10:18:49.650Z,5.32
2022-08-19T10:21:20.313Z,8.30
2022-08-19T10:23:50.178Z,8.18
2022-08-19T10:26:21.332Z,9.00
2022-08-19T10:28:50.028Z,8.52
2022-08-19T10:31:21.539Z,7.40
2022-08-19T10:34:14.551Z,5.82
2022-08-19T10:36:56.677Z,6.13
2022-08-19T10:39:31.336Z,5.70
2022-08-19T10:42:01.409Z,7.80
2022-08-19T10:44:32.627Z,7.43
2022-08-19T10:47:01.688Z,6.63
2022-08-19T10:49:30.326Z,6.63
2022-08-19T10:52:19.029Z,5.32
2022-08-19T10:55:08.501Z,7.35
2022-08-19T10:58:01.323Z,11.27
2022-08-19T11:00:27.380Z,4.93
2022-08-19T11:02:56.809Z,7.88
2022-08-19T11:05:25.313Z,7.60
2022-08-19T11:07:54.044Z,9.30
2022-08-19T11:10:24.838Z,5.82
2022-08-19T11:12:55.700Z,6.47
2022-08-19T11:15:24.385Z,8.45
2022-08-19T11:17:55.401Z,6.47
2022-08-19T11:20:25.420Z,6.65
2022-08-19T11:22:54.590Z,4.80
2022-08-19T11:25:23.322Z,5.90
2022-08-19T11:27:53.267Z,7.45
2022-08-19T11:30:23.414Z,7.07
2022-08-19T11:32:51.895Z,7.47
2022-08-19T11:35:20.673Z,7.13
2022-08-19T11:37:49.141Z,5.05
2022-08-19T11:40:17.740Z,4.78
2022-08-19T11:42:58.610Z,5.93
2022-08-19T11:45:29.664Z,7.88
2022-08-19T11:47:58.501Z,4.75
2022-08-19T11:50:27.317Z,9.63
2022-08-19T11:52:56.693Z,5.18
2022-08-19T11:55:25.508Z,5.90
2022-08-19T11:57:54.111Z,5.78
2022-08-19T12:00:22.788Z,5.47
2022-08-19T12:02:52.637Z,6.80
2022-08-19T12:05:21.249Z,7.43
2022-08-19T12:07:50.933Z,8.32
2022-08-19T12:10:22.384Z,6.22
2022-08-19T12:12:58.924Z,7.18
2022-08-19T12:15:28.910Z,9.05
2022-08-19T12:18:07.735Z,6.70
2022-08-19T12:20:37.624Z,6.70
2022-08-19T12:23:06.138Z,8.48
2022-08-19T12:25:35.488Z,7.38
2022-08-19T12:28:04.451Z,8.48
2022-08-19T12:30:33.410Z,7.53
2022-08-19T12:33:01.877Z,9.40
2022-08-19T12:35:31.883Z,9.45
2022-08-19T12:38:01.025Z,6.38
2022-08-19T12:40:29.626Z,8.20
2022-08-19T12:42:58.421Z,6.72
2022-08-19T12:45:28.285Z,7.28
2022-08-19T12:47:56.952Z,9.85
2022-08-19T12:50:25.633Z,6.78
2022-08-19T12:52:55.476Z,5.72
2022-08-19T12:55:23.972Z,8.07
2022-08-19T12:57:52.474Z,7.15
2022-08-19T13:00:23.073Z,4.57
2022-08-19T13:02:53.776Z,7.13
2022-08-19T13:05:24.347Z,6.53
2022-08-19T13:07:56.822Z,6.13
2022-08-19T13:10:28.771Z,8.70
2022-08-19T13:12:58.048Z,7.25
2022-08-19T13:15:26.768Z,5.10
2022-08-19T13:17:57.776Z,8.40
2022-08-19T13:20:26.501Z,5.85
2022-08-19T13:22:55.041Z,6.47
2022-08-19T13:25:23.789Z,9.55
2022-08-19T13:27:53.821Z,5.80
2022-08-19T13:30:40.935Z,7.75
2022-08-19T13:33:12.784Z,9.50
2022-08-19T13:35:46.804Z,5.07
2022-08-19T13:38:15.534Z,8.05
2022-08-19T13:40:44.240Z,7.53
2022-08-19T13:43:23.044Z,7.00
2022-08-19T13:45:53.744Z,7.82
2022-08-19T13:48:22.553Z,6.88
2022-08-19T13:50:51.053Z,5.63
2022-08-19T13:53:19.871Z,6.95
2022-08-19T13:55:48.408Z,7.60
2022-08-19T13:58:18.641Z,7.63
2022-08-19T14:00:49.334Z,9.43
2022-08-19T14:03:18.009Z,7.40
2022-08-19T14:05:47.669Z,10.98
2022-08-19T14:08:16.172Z,6.50
2022-08-19T14:10:45.528Z,10.73
2022-08-19T14:13:16.762Z,7.97
2022-08-19T14:15:47.068Z,6.45
2022-08-19T14:18:15.724Z,5.72
2022-08-19T14:20:44.268Z,8.63
2022-08-19T14:23:13.785Z,8.32
2022-08-19T14:25:42.463Z,5.32
2022-08-19T14:28:10.924Z,7.65
2022-08-19T14:30:40.067Z,18.45
2022-08-19T14:33:10.428Z,7.25
2022-08-19T14:35:39.293Z,10.45
2022-08-19T14:38:09.181Z,6.22
2022-08-19T14:40:37.728Z,7.70
2022-08-19T14:43:07.049Z,8.20
2022-08-19T14:45:36.918Z,6.95
2022-08-19T14:48:06.423Z,7.13
2022-08-19T14:50:37.064Z,7.07
2022-08-19T14:53:09.052Z,6.85
2022-08-19T14:55:43.470Z,8.25
2022-08-19T14:58:29.405Z,7.45
2022-08-19T15:00:59.223Z,7.80
2022-08-19T15:03:28.071Z,7.78
2022-08-19T15:05:58.741Z,8.80
2022-08-19T15:08:27.841Z,10.20
2022-08-19T15:10:56.347Z,7.55
2022-08-19T15:13:25.638Z,6.85
2022-08-19T15:15:54.159Z,8.73
2022-08-19T15:18:22.850Z,8.70
2022-08-19T15:20:51.947Z,9.32
2022-08-19T15:23:22.758Z,8.38
2022-08-19T15:25:55.875Z,8.48
2022-08-19T15:28:25.254Z,8.68
2022-08-19T15:30:54.201Z,10.52
2022-08-19T15:33:22.693Z,8.23
2022-08-19T15:35:52.165Z,10.43
2022-08-19T15:38:24.469Z,7.53
2022-08-19T15:40:53.065Z,10.13
2022-08-19T15:43:23.340Z,7.28
2022-08-19T15:45:51.885Z,10.52
2022-08-19T15:48:20.349Z,9.95
2022-08-19T15:50:48.812Z,8.15
2022-08-19T15:53:18.023Z,12.18
2022-08-19T15:55:49.141Z,6.80
2022-08-19T15:58:35.667Z,13.88
2022-08-19T16:01:23.897Z,6.63
2022-08-19T16:04:11.388Z,9.38
2022-08-19T16:06:45.827Z,10.60
2022-08-19T16:09:14.296Z,8.57
2022-08-19T16:11:46.544Z,9.65
2022-08-19T16:14:16.149Z,9.88
2022-08-19T16:16:46.807Z,9.07
2022-08-19T16:19:16.717Z,7.88
2022-08-19T16:21:45.700Z,12.10
2022-08-19T16:24:15.077Z,8.20
2022-08-19T16:26:45.428Z,8.52
2022-08-19T16:29:14.016Z,9.80
2022-08-19T16:31:43.461Z,6.45
2022-08-19T16:34:12.520Z,8.40
2022-08-19T16:36:42.233Z,6.78
2022-08-19T16:39:11.063Z,12.65
2022-08-19T16:41:39.738Z,10.38
2022-08-19T16:44:10.410Z,8.15
2022-08-19T16:46:41.644Z,8.95
2022-08-19T16:49:11.676Z,13.00
2022-08-19T16:51:40.622Z,15.52
2022-08-19T16:54:09.188Z,11.77
2022-08-19T16:56:38.001Z,8.48
2022-08-19T16:59:06.644Z,10.13
2022-08-19T17:01:36.544Z,9.23
2022-08-19T17:04:05.764Z,13.43
2022-08-19T17:06:36.544Z,11.27
2022-08-19T17:09:06.054Z,9.98
2022-08-19T17:11:35.810Z,10.77
2022-08-19T17:14:05.297Z,12.63
2022-08-19T17:16:34.891Z,9.98
2022-08-19T17:19:08.228Z,12.70
2022-08-19T17:21:37.832Z,10.77
2022-08-19T17:24:08.720Z,9.40
2022-08-19T17:26:38.084Z,9.55
2022-08-19T17:29:07.201Z,12.48
2022-08-19T17:31:35.976Z,18.10
2022-08-19T17:34:06.372Z,9.23
2022-08-19T17:36:36.239Z,11.65
2022-08-19T17:39:05.455Z,13.07
2022-08-19T17:41:35.159Z,10.80
2022-08-19T17:44:03.638Z,10.07
2022-08-19T17:46:32.156Z,9.85
2022-08-19T17:49:00.839Z,9.05
2022-08-19T17:51:42.535Z,12.57
2022-08-19T17:54:12.093Z,12.95
2022-08-19T17:56:41.764Z,9.77
2022-08-19T17:59:13.783Z,10.35
2022-08-19T18:01:52.107Z,11.02
2022-08-19T18:04:24.049Z,13.48
2022-08-19T18:06:54.988Z,13.77
2022-08-19T18:09:25.217Z,10.65
2022-08-19T18:11:54.490Z,12.48
2022-08-19T18:14:32.206Z,10.93
2022-08-19T18:17:05.578Z,12.00
2022-08-19T18:19:40.823Z,9.27
2022-08-19T18:22:12.082Z,9.52
2022-08-19T18:24:41.547Z,12.23
2022-08-19T18:27:10.273Z,11.85
2022-08-19T18:29:40.222Z,11.50
2022-08-19T18:32:13.332Z,10.70
2022-08-19T18:34:42.312Z,10.65
2022-08-19T18:37:12.192Z,12.80
2022-08-19T18:39:58.047Z,9.80
2022-08-19T18:42:44.260Z,8.98
2022-08-19T18:45:31.091Z,12.05
2022-08-19T18:48:27.132Z,10.75
2022-08-19T18:50:56.448Z,10.75
2022-08-19T18:53:26.327Z,12.43
2022-08-19T18:55:55.284Z,10.60
2022-08-19T18:58:26.442Z,15.82
2022-08-19T19:00:57.089Z,11.55
2022-08-19T19:03:25.813Z,13.15
2022-08-19T19:05:54.308Z,14.10
2022-08-19T19:08:27.276Z,11.60
2022-08-19T19:10:59.018Z,11.50
2022-08-19T19:13:29.574Z,10.57
2022-08-19T19:15:58.111Z,14.00
2022-08-19T19:18:26.680Z,11.98
2022-08-19T19:20:55.158Z,9.68
2022-08-19T19:23:23.694Z,10.13
2022-08-19T19:25:52.893Z,10.45
2022-08-19T19:28:25.718Z,11.40
2022-08-19T19:30:55.189Z,12.68
2022-08-19T19:33:23.713Z,15.25
2022-08-19T19:35:52.191Z,12.07
2022-08-19T19:38:20.662Z,12.50
2022-08-19T19:40:49.211Z,10.35
2022-08-19T19:43:18.447Z,14.93
2022-08-19T19:45:49.975Z,14.73
2022-08-19T19:48:18.681Z,14.27
2022-08-19T19:50:54.067Z,12.30
2022-08-19T19:53:26.086Z,14.35
2022-08-19T19:55:58.984Z,12.50
2022-08-19T19:58:28.757Z,11.90
2022-08-19T20:00:59.689Z,11.02
2022-08-19T20:03:30.055Z,12.38
2022-08-19T20:05:59.396Z,10.70
2022-08-19T20:08:46.166Z,11.63
2022-08-19T20:11:16.668Z,12.82
2022-08-19T20:13:45.420Z,9.98
2022-08-19T20:16:15.281Z,11.60
2022-08-19T20:18:43.789Z,12.93
2022-08-19T20:21:12.381Z,11.93
2022-08-19T20:23:40.820Z,12.73
2022-08-19T20:26:14.814Z,12.57
2022-08-19T20:29:19.283Z,15.70
2022-08-19T20:31:57.370Z,14.10
2022-08-19T20:34:27.872Z,13.68
2022-08-19T20:36:56.387Z,12.65
2022-08-19T20:39:24.821Z,15.40
2022-08-19T20:41:53.307Z,12.55
2022-08-19T20:44:21.795Z,15.45
2022-08-19T20:46:55.568Z,11.23
2022-08-19T20:49:27.103Z,12.25
2022-08-19T20:51:56.473Z,14.07
2022-08-19T20:54:25.062Z,11.68
2022-08-19T20:56:53.571Z,10.77
2022-08-19T20:59:22.125Z,16.27
2022-08-19T21:01:52.318Z,12.80
2022-08-19T21:04:21.389Z,12.75
2022-08-19T21:06:49.873Z,11.05
2022-08-19T21:09:18.632Z,13.07
2022-08-19T21:11:47.109Z,15.68
2022-08-19T21:14:15.627Z,11.02
2022-08-19T21:16:44.465Z,11.13
2022-08-19T21:19:14.312Z,13.70
2022-08-19T21:21:42.792Z,12.75
2022-08-19T21:24:11.312Z,13.57
2022-08-19T21:26:40.041Z,12.02
2022-08-19T21:29:08.765Z,11.85
2022-08-19T21:31:37.224Z,11.35
2022-08-19T21:34:06.050Z,15.25
2022-08-19T21:36:35.914Z,11.38
2022-08-19T21:39:04.731Z,12.15
2022-08-19T21:41:33.229Z,13.30
2022-08-19T21:44:01.745Z,11.82
2022-08-19T21:46:30.212Z,12.35
2022-08-19T21:48:58.653Z,13.25
2022-08-19T21:51:27.130Z,12.93
2022-08-19T21:53:57.516Z,14.15
2022-08-19T21:56:26.005Z,14.77
2022-08-19T21:58:55.578Z,15.32
2022-08-19T22:01:24.246Z,11.52
2022-08-19T22:03:52.797Z,12.10
2022-08-19T22:06:23.108Z,13.13
2022-08-19T22:08:51.567Z,12.63
2022-08-19T22:11:21.425Z,11.85
2022-08-19T22:13:53.757Z,14.20
2022-08-19T22:16:22.805Z,12.52
2022-08-19T22:18:51.790Z,13.95
2022-08-19T22:21:39.662Z,11.15
2022-08-19T22:24:09.257Z,11.73
2022-08-19T22:26:39.160Z,15.77
2022-08-19T22:29:07.599Z,11.40
2022-08-19T22:31:37.591Z,13.05
2022-08-19T22:34:06.748Z,12.48
2022-08-19T22:36:35.657Z,14.45
2022-08-19T22:39:04.834Z,11.68
2022-08-19T22:41:34.549Z,12.07
2022-08-19T22:44:04.433Z,12.63
2022-08-19T22:46:34.267Z,12.55
2022-08-19T22:49:02.767Z,13.90
2022-08-19T22:51:48.766Z,14.55
2022-08-19T22:54:17.459Z,12.38
2022-08-19T22:56:45.953Z,11.52
2022-08-19T22:59:16.173Z,16.10
2022-08-19T23:01:44.632Z,12.02
2022-08-19T23:04:13.113Z,12.27
2022-08-19T23:06:42.495Z,11.60
2022-08-19T23:09:17.000Z,12.32
2022-08-19T23:11:45.940Z,16.15
2022-08-19T23:14:17.646Z,11.70
2022-08-19T23:16:50.655Z,11.85
2022-08-19T23:19:20.284Z,16.75
2022-08-19T23:21:48.921Z,16.70
2022-08-19T23:24:17.506Z,11.05
2022-08-19T23:26:59.857Z,12.70
2022-08-19T23:29:48.630Z,12.57
2022-08-19T23:32:17.256Z,11.75
2022-08-19T23:34:45.808Z,11.68
2022-08-19T23:37:14.253Z,12.77
2022-08-19T23:39:43.645Z,14.25
2022-08-19T23:42:13.829Z,12.15
2022-08-19T23:44:51.814Z,13.50
2022-08-19T23:47:21.474Z,11.60
2022-08-19T23:49:50.678Z,16.15
2022-08-19T23:52:19.227Z,11.73
2022-08-19T23:54:47.757Z,14.32
2022-08-19T23:57:16.192Z,13.98
2022-08-19T23:59:46.400Z,12.05
